Seaford, Delaware
Current Conditions -  °F | °C
As of 4:54 PM on Monday 22 Dec 2014 (Local Time) from KGED Reporting Station
Overcast Overcast  
Wind Chill: 37°   Ceiling: 7000
Heat Index: 42°   Visibility: 7mi
Dew Point: 39°   Wind: 8mph
Humidity: 89%   Direction: 40°NE
Pressure: 30.13"   Gusts: NA
Location:  38.64°N, 75.61°W
Report Text: KGED 222154Z AUTO 04007KT 7SM SCT017 OVC070 06/04 A3013 RMK AO2 SLP203 T00560039
Loading
Personal Weather Stations






























Interactive Weather Map New forecast layout! Learn more

10-Day Weather Forecast

Advertisements
Track Severe Weather on mobile